Aviation Digital Data Service (ADDS)

Output produced by METARs form (1309 UTC 24 May 2015)
found at http://aviationweather.gov/adds/metars/
 
KMHT 241120Z 2412/2512 24005KT P6SM SCT110 
     FM241300 27014G22KT P6SM FEW070 SCT250 
     FM242300 22007KT P6SM SKC